sensor_id;sensor_type;location;lat;lon;timestamp;P1;durP1;ratioP1;P2;durP2;ratioP2
10313;SDS011;5202;49.138;10.090;2023-05-27T00:02:10;14.35;;;3.67;;
10313;SDS011;5202;49.138;10.090;2023-05-27T00:04:39;7.30;;;3.50;;
10313;SDS011;5202;49.138;10.090;2023-05-27T00:07:09;11.77;;;3.75;;
10313;SDS011;5202;49.138;10.090;2023-05-27T00:09:37;11.10;;;3.67;;
10313;SDS011;5202;49.138;10.090;2023-05-27T00:12:06;7.32;;;3.38;;
10313;SDS011;5202;49.138;10.090;2023-05-27T00:14:34;70.07;;;8.70;;
10313;SDS011;5202;49.138;10.090;2023-05-27T00:17:02;145.73;;;10.73;;
10313;SDS011;5202;49.138;10.090;2023-05-27T00:19:31;254.02;;;18.75;;
10313;SDS011;5202;49.138;10.090;2023-05-27T00:21:59;209.07;;;19.92;;
10313;SDS011;5202;49.138;10.090;2023-05-27T00:24:29;16.65;;;3.58;;
10313;SDS011;5202;49.138;10.090;2023-05-27T00:27:01;14.90;;;4.10;;
10313;SDS011;5202;49.138;10.090;2023-05-27T00:29:29;11.20;;;3.88;;
10313;SDS011;5202;49.138;10.090;2023-05-27T00:31:59;10.90;;;3.95;;
10313;SDS011;5202;49.138;10.090;2023-05-27T00:34:29;13.43;;;3.25;;
10313;SDS011;5202;49.138;10.090;2023-05-27T00:36:59;13.05;;;4.00;;
10313;SDS011;5202;49.138;10.090;2023-05-27T00:39:29;11.00;;;3.63;;
10313;SDS011;5202;49.138;10.090;2023-05-27T00:41:57;9.60;;;3.30;;
10313;SDS011;5202;49.138;10.090;2023-05-27T00:44:26;8.80;;;3.70;;
10313;SDS011;5202;49.138;10.090;2023-05-27T00:46:54;10.57;;;3.55;;
10313;SDS011;5202;49.138;10.090;2023-05-27T00:49:22;8.60;;;3.40;;
10313;SDS011;5202;49.138;10.090;2023-05-27T00:51:52;12.38;;;4.18;;
10313;SDS011;5202;49.138;10.090;2023-05-27T00:54:21;13.20;;;3.67;;
10313;SDS011;5202;49.138;10.090;2023-05-27T00:56:50;12.15;;;3.88;;
10313;SDS011;5202;49.138;10.090;2023-05-27T00:59:19;10.27;;;3.72;;
10313;SDS011;5202;49.138;10.090;2023-05-27T01:01:48;10.98;;;3.53;;
10313;SDS011;5202;49.138;10.090;2023-05-27T01:04:17;13.48;;;4.00;;
10313;SDS011;5202;49.138;10.090;2023-05-27T01:06:48;12.55;;;4.00;;
10313;SDS011;5202;49.138;10.090;2023-05-27T01:09:28;13.27;;;3.77;;
10313;SDS011;5202;49.138;10.090;2023-05-27T01:12:07;12.27;;;3.77;;
10313;SDS011;5202;49.138;10.090;2023-05-27T01:14:43;11.47;;;3.83;;
10313;SDS011;5202;49.138;10.090;2023-05-27T01:17:13;14.70;;;4.67;;
10313;SDS011;5202;49.138;10.090;2023-05-27T01:19:49;13.00;;;4.40;;
10313;SDS011;5202;49.138;10.090;2023-05-27T01:22:19;11.77;;;3.63;;
10313;SDS011;5202;49.138;10.090;2023-05-27T01:24:55;16.07;;;4.47;;
10313;SDS011;5202;49.138;10.090;2023-05-27T01:27:23;11.10;;;4.37;;
10313;SDS011;5202;49.138;10.090;2023-05-27T01:29:52;14.67;;;4.30;;
10313;SDS011;5202;49.138;10.090;2023-05-27T01:32:28;9.23;;;3.90;;
10313;SDS011;5202;49.138;10.090;2023-05-27T01:35:04;10.70;;;3.53;;
10313;SDS011;5202;49.138;10.090;2023-05-27T01:37:45;17.63;;;4.17;;
10313;SDS011;5202;49.138;10.090;2023-05-27T01:40:15;18.90;;;4.70;;
10313;SDS011;5202;49.138;10.090;2023-05-27T01:42:44;11.03;;;4.23;;
10313;SDS011;5202;49.138;10.090;2023-05-27T01:45:14;20.03;;;4.10;;
10313;SDS011;5202;49.138;10.090;2023-05-27T01:47:42;12.37;;;4.07;;
10313;SDS011;5202;49.138;10.090;2023-05-27T01:50:11;9.83;;;4.27;;
10313;SDS011;5202;49.138;10.090;2023-05-27T01:52:39;14.67;;;4.40;;
10313;SDS011;5202;49.138;10.090;2023-05-27T01:55:10;12.00;;;4.00;;
10313;SDS011;5202;49.138;10.090;2023-05-27T01:57:39;15.27;;;5.03;;
10313;SDS011;5202;49.138;10.090;2023-05-27T02:00:08;15.13;;;4.23;;
10313;SDS011;5202;49.138;10.090;2023-05-27T02:02:44;15.43;;;4.40;;
10313;SDS011;5202;49.138;10.090;2023-05-27T02:05:13;14.17;;;3.90;;
10313;SDS011;5202;49.138;10.090;2023-05-27T02:07:50;13.13;;;3.73;;
10313;SDS011;5202;49.138;10.090;2023-05-27T02:10:20;12.70;;;3.67;;
10313;SDS011;5202;49.138;10.090;2023-05-27T02:12:48;16.87;;;3.97;;
10313;SDS011;5202;49.138;10.090;2023-05-27T02:15:18;9.40;;;3.83;;
10313;SDS011;5202;49.138;10.090;2023-05-27T02:17:47;13.93;;;4.40;;
10313;SDS011;5202;49.138;10.090;2023-05-27T02:20:21;11.90;;;3.73;;
10313;SDS011;5202;49.138;10.090;2023-05-27T02:22:50;13.73;;;4.37;;
10313;SDS011;5202;49.138;10.090;2023-05-27T02:25:20;15.77;;;4.23;;
10313;SDS011;5202;49.138;10.090;2023-05-27T02:27:49;12.07;;;3.90;;
10313;SDS011;5202;49.138;10.090;2023-05-27T02:30:19;9.13;;;3.50;;
10313;SDS011;5202;49.138;10.090;2023-05-27T02:32:48;12.63;;;3.57;;
10313;SDS011;5202;49.138;10.090;2023-05-27T02:35:17;9.83;;;3.77;;
10313;SDS011;5202;49.138;10.090;2023-05-27T02:37:46;11.80;;;3.70;;
10313;SDS011;5202;49.138;10.090;2023-05-27T02:40:24;13.20;;;4.13;;
10313;SDS011;5202;49.138;10.090;2023-05-27T02:42:54;8.30;;;3.00;;
10313;SDS011;5202;49.138;10.090;2023-05-27T02:45:24;12.57;;;3.50;;
10313;SDS011;5202;49.138;10.090;2023-05-27T02:47:52;11.90;;;3.67;;
10313;SDS011;5202;49.138;10.090;2023-05-27T02:50:21;9.93;;;3.53;;
10313;SDS011;5202;49.138;10.090;2023-05-27T02:52:50;11.63;;;4.23;;
10313;SDS011;5202;49.138;10.090;2023-05-27T02:55:18;13.30;;;4.13;;
10313;SDS011;5202;49.138;10.090;2023-05-27T02:57:48;13.03;;;3.50;;
10313;SDS011;5202;49.138;10.090;2023-05-27T03:00:17;9.57;;;3.37;;
10313;SDS011;5202;49.138;10.090;2023-05-27T03:02:47;9.37;;;3.60;;
10313;SDS011;5202;49.138;10.090;2023-05-27T03:05:16;9.67;;;3.30;;
10313;SDS011;5202;49.138;10.090;2023-05-27T03:07:44;9.37;;;3.33;;
10313;SDS011;5202;49.138;10.090;2023-05-27T03:10:13;14.50;;;3.63;;
10313;SDS011;5202;49.138;10.090;2023-05-27T03:12:42;10.13;;;3.80;;
10313;SDS011;5202;49.138;10.090;2023-05-27T03:15:11;13.57;;;3.90;;
10313;SDS011;5202;49.138;10.090;2023-05-27T03:17:41;12.37;;;3.70;;
10313;SDS011;5202;49.138;10.090;2023-05-27T03:20:09;12.07;;;3.43;;
10313;SDS011;5202;49.138;10.090;2023-05-27T03:22:39;8.87;;;3.33;;
10313;SDS011;5202;49.138;10.090;2023-05-27T03:25:07;7.90;;;3.20;;
10313;SDS011;5202;49.138;10.090;2023-05-27T03:27:37;14.67;;;4.50;;
10313;SDS011;5202;49.138;10.090;2023-05-27T03:30:12;8.63;;;3.80;;
10313;SDS011;5202;49.138;10.090;2023-05-27T03:32:47;11.20;;;3.57;;
10313;SDS011;5202;49.138;10.090;2023-05-27T03:35:20;10.07;;;3.43;;
10313;SDS011;5202;49.138;10.090;2023-05-27T03:37:48;13.83;;;3.90;;
10313;SDS011;5202;49.138;10.090;2023-05-27T03:40:17;11.27;;;3.70;;
10313;SDS011;5202;49.138;10.090;2023-05-27T03:42:45;8.07;;;3.33;;
10313;SDS011;5202;49.138;10.090;2023-05-27T03:45:19;10.20;;;3.50;;
10313;SDS011;5202;49.138;10.090;2023-05-27T03:47:47;10.87;;;3.43;;
10313;SDS011;5202;49.138;10.090;2023-05-27T03:50:18;8.33;;;3.50;;
10313;SDS011;5202;49.138;10.090;2023-05-27T03:52:46;9.90;;;3.67;;
10313;SDS011;5202;49.138;10.090;2023-05-27T03:55:15;11.57;;;3.27;;
10313;SDS011;5202;49.138;10.090;2023-05-27T03:57:44;11.40;;;4.03;;
10313;SDS011;5202;49.138;10.090;2023-05-27T04:00:12;5.93;;;3.20;;
10313;SDS011;5202;49.138;10.090;2023-05-27T04:02:52;13.17;;;3.30;;
10313;SDS011;5202;49.138;10.090;2023-05-27T04:05:44;8.50;;;3.07;;
10313;SDS011;5202;49.138;10.090;2023-05-27T04:08:12;10.20;;;3.70;;
10313;SDS011;5202;49.138;10.090;2023-05-27T04:10:41;10.27;;;3.70;;
10313;SDS011;5202;49.138;10.090;2023-05-27T04:13:09;8.53;;;3.10;;
10313;SDS011;5202;49.138;10.090;2023-05-27T04:15:40;8.07;;;3.83;;
10313;SDS011;5202;49.138;10.090;2023-05-27T04:18:10;5.30;;;2.87;;
10313;SDS011;5202;49.138;10.090;2023-05-27T04:20:42;9.00;;;3.37;;
10313;SDS011;5202;49.138;10.090;2023-05-27T04:23:14;10.97;;;2.90;;
10313;SDS011;5202;49.138;10.090;2023-05-27T04:25:42;15.83;;;3.73;;
10313;SDS011;5202;49.138;10.090;2023-05-27T04:28:12;8.77;;;3.33;;
10313;SDS011;5202;49.138;10.090;2023-05-27T04:30:44;10.43;;;3.77;;
10313;SDS011;5202;49.138;10.090;2023-05-27T04:33:28;9.47;;;3.57;;
10313;SDS011;5202;49.138;10.090;2023-05-27T04:35:56;9.17;;;3.60;;
10313;SDS011;5202;49.138;10.090;2023-05-27T04:38:28;9.17;;;3.20;;
10313;SDS011;5202;49.138;10.090;2023-05-27T04:41:02;11.67;;;3.10;;
10313;SDS011;5202;49.138;10.090;2023-05-27T04:44:02;9.87;;;3.57;;
10313;SDS011;5202;49.138;10.090;2023-05-27T04:46:37;8.73;;;2.80;;
10313;SDS011;5202;49.138;10.090;2023-05-27T04:49:09;7.60;;;2.90;;
10313;SDS011;5202;49.138;10.090;2023-05-27T04:51:37;10.40;;;3.00;;
10313;SDS011;5202;49.138;10.090;2023-05-27T04:54:06;11.77;;;3.00;;
10313;SDS011;5202;49.138;10.090;2023-05-27T04:56:35;9.73;;;3.03;;
10313;SDS011;5202;49.138;10.090;2023-05-27T04:59:05;12.40;;;3.50;;
10313;SDS011;5202;49.138;10.090;2023-05-27T05:01:35;10.03;;;3.50;;
10313;SDS011;5202;49.138;10.090;2023-05-27T05:04:34;8.60;;;3.60;;
10313;SDS011;5202;49.138;10.090;2023-05-27T05:07:04;14.00;;;3.50;;
10313;SDS011;5202;49.138;10.090;2023-05-27T05:09:34;9.23;;;3.37;;
10313;SDS011;5202;49.138;10.090;2023-05-27T05:12:10;7.70;;;2.67;;
10313;SDS011;5202;49.138;10.090;2023-05-27T05:14:41;12.07;;;3.53;;
10313;SDS011;5202;49.138;10.090;2023-05-27T05:17:10;8.17;;;3.23;;
10313;SDS011;5202;49.138;10.090;2023-05-27T05:19:40;8.33;;;3.43;;
10313;SDS011;5202;49.138;10.090;2023-05-27T05:22:10;10.90;;;3.83;;
10313;SDS011;5202;49.138;10.090;2023-05-27T05:24:39;9.83;;;3.10;;
10313;SDS011;5202;49.138;10.090;2023-05-27T05:27:08;12.10;;;4.43;;
10313;SDS011;5202;49.138;10.090;2023-05-27T05:29:37;9.23;;;3.47;;
10313;SDS011;5202;49.138;10.090;2023-05-27T05:32:09;8.53;;;3.03;;
10313;SDS011;5202;49.138;10.090;2023-05-27T05:34:38;8.33;;;3.00;;
10313;SDS011;5202;49.138;10.090;2023-05-27T05:37:09;8.23;;;3.20;;
10313;SDS011;5202;49.138;10.090;2023-05-27T05:39:40;10.90;;;3.33;;
10313;SDS011;5202;49.138;10.090;2023-05-27T05:42:10;10.15;;;3.22;;
10313;SDS011;5202;49.138;10.090;2023-05-27T05:44:39;7.20;;;3.30;;
10313;SDS011;5202;49.138;10.090;2023-05-27T05:47:08;9.75;;;3.08;;
10313;SDS011;5202;49.138;10.090;2023-05-27T05:49:36;8.02;;;3.38;;
10313;SDS011;5202;49.138;10.090;2023-05-27T05:52:08;9.93;;;3.33;;
10313;SDS011;5202;49.138;10.090;2023-05-27T05:54:37;7.50;;;2.80;;
10313;SDS011;5202;49.138;10.090;2023-05-27T05:57:06;11.80;;;3.30;;
10313;SDS011;5202;49.138;10.090;2023-05-27T05:59:34;12.00;;;3.83;;
10313;SDS011;5202;49.138;10.090;2023-05-27T06:02:03;10.63;;;3.33;;
10313;SDS011;5202;49.138;10.090;2023-05-27T06:04:32;7.70;;;3.10;;
10313;SDS011;5202;49.138;10.090;2023-05-27T06:07:01;9.73;;;3.20;;
10313;SDS011;5202;49.138;10.090;2023-05-27T06:09:38;10.10;;;3.20;;
10313;SDS011;5202;49.138;10.090;2023-05-27T06:12:13;10.77;;;3.42;;
10313;SDS011;5202;49.138;10.090;2023-05-27T06:14:44;12.55;;;3.13;;
10313;SDS011;5202;49.138;10.090;2023-05-27T06:17:22;6.90;;;2.90;;
10313;SDS011;5202;49.138;10.090;2023-05-27T06:19:51;9.10;;;3.35;;
10313;SDS011;5202;49.138;10.090;2023-05-27T06:22:20;10.10;;;3.20;;
10313;SDS011;5202;49.138;10.090;2023-05-27T06:25:10;9.70;;;3.40;;
10313;SDS011;5202;49.138;10.090;2023-05-27T06:27:49;7.80;;;3.08;;
10313;SDS011;5202;49.138;10.090;2023-05-27T06:30:18;6.93;;;3.08;;
10313;SDS011;5202;49.138;10.090;2023-05-27T06:32:48;9.55;;;3.47;;
10313;SDS011;5202;49.138;10.090;2023-05-27T06:35:18;9.25;;;3.40;;
10313;SDS011;5202;49.138;10.090;2023-05-27T06:37:47;9.88;;;3.45;;
10313;SDS011;5202;49.138;10.090;2023-05-27T06:40:17;6.95;;;3.22;;
10313;SDS011;5202;49.138;10.090;2023-05-27T06:42:45;9.70;;;3.38;;
10313;SDS011;5202;49.138;10.090;2023-05-27T06:45:33;7.13;;;2.90;;
10313;SDS011;5202;49.138;10.090;2023-05-27T06:48:21;10.93;;;3.28;;
10313;SDS011;5202;49.138;10.090;2023-05-27T06:50:49;6.97;;;3.40;;
10313;SDS011;5202;49.138;10.090;2023-05-27T06:53:18;10.30;;;3.63;;
10313;SDS011;5202;49.138;10.090;2023-05-27T06:56:17;8.00;;;3.22;;
10313;SDS011;5202;49.138;10.090;2023-05-27T06:59:05;13.05;;;3.45;;
10313;SDS011;5202;49.138;10.090;2023-05-27T07:01:33;8.07;;;3.20;;
10313;SDS011;5202;49.138;10.090;2023-05-27T07:04:04;10.57;;;3.15;;
10313;SDS011;5202;49.138;10.090;2023-05-27T07:06:42;9.73;;;3.35;;
10313;SDS011;5202;49.138;10.090;2023-05-27T07:09:11;9.95;;;3.17;;
10313;SDS011;5202;49.138;10.090;2023-05-27T07:11:41;9.95;;;3.65;;
10313;SDS011;5202;49.138;10.090;2023-05-27T07:14:14;10.75;;;3.75;;
10313;SDS011;5202;49.138;10.090;2023-05-27T07:16:43;11.85;;;3.30;;
10313;SDS011;5202;49.138;10.090;2023-05-27T07:19:12;8.38;;;3.65;;
10313;SDS011;5202;49.138;10.090;2023-05-27T07:21:47;11.50;;;3.63;;
10313;SDS011;5202;49.138;10.090;2023-05-27T07:24:19;12.02;;;4.05;;
10313;SDS011;5202;49.138;10.090;2023-05-27T07:26:50;5.93;;;3.10;;
10313;SDS011;5202;49.138;10.090;2023-05-27T07:29:19;9.50;;;3.78;;
10313;SDS011;5202;49.138;10.090;2023-05-27T07:31:51;11.98;;;3.40;;
10313;SDS011;5202;49.138;10.090;2023-05-27T07:34:23;11.18;;;3.65;;
10313;SDS011;5202;49.138;10.090;2023-05-27T07:36:51;9.68;;;2.97;;
10313;SDS011;5202;49.138;10.090;2023-05-27T07:39:20;10.55;;;3.50;;
10313;SDS011;5202;49.138;10.090;2023-05-27T07:41:50;11.05;;;4.10;;
10313;SDS011;5202;49.138;10.090;2023-05-27T07:44:18;8.10;;;3.00;;
10313;SDS011;5202;49.138;10.090;2023-05-27T07:46:47;10.63;;;3.72;;
10313;SDS011;5202;49.138;10.090;2023-05-27T07:49:15;8.40;;;3.03;;
10313;SDS011;5202;49.138;10.090;2023-05-27T07:51:54;8.50;;;3.35;;
10313;SDS011;5202;49.138;10.090;2023-05-27T07:54:23;9.02;;;3.92;;
10313;SDS011;5202;49.138;10.090;2023-05-27T07:56:54;10.75;;;3.47;;
10313;SDS011;5202;49.138;10.090;2023-05-27T07:59:24;9.88;;;4.18;;
10313;SDS011;5202;49.138;10.090;2023-05-27T08:01:52;9.73;;;3.85;;
10313;SDS011;5202;49.138;10.090;2023-05-27T08:04:26;11.85;;;3.90;;
10313;SDS011;5202;49.138;10.090;2023-05-27T08:07:18;14.95;;;4.10;;
10313;SDS011;5202;49.138;10.090;2023-05-27T08:09:51;13.35;;;4.00;;
10313;SDS011;5202;49.138;10.090;2023-05-27T08:12:59;7.93;;;3.47;;
10313;SDS011;5202;49.138;10.090;2023-05-27T08:15:42;7.25;;;3.35;;
10313;SDS011;5202;49.138;10.090;2023-05-27T08:18:36;10.20;;;4.10;;
10313;SDS011;5202;49.138;10.090;2023-05-27T08:21:11;8.43;;;3.63;;
10313;SDS011;5202;49.138;10.090;2023-05-27T08:23:49;12.95;;;3.65;;
10313;SDS011;5202;49.138;10.090;2023-05-27T08:26:31;12.55;;;3.92;;
10313;SDS011;5202;49.138;10.090;2023-05-27T08:29:23;9.07;;;3.60;;
10313;SDS011;5202;49.138;10.090;2023-05-27T08:32:07;8.52;;;3.38;;
10313;SDS011;5202;49.138;10.090;2023-05-27T08:34:35;9.55;;;3.90;;
10313;SDS011;5202;49.138;10.090;2023-05-27T08:37:04;8.73;;;3.97;;
10313;SDS011;5202;49.138;10.090;2023-05-27T08:39:37;9.13;;;3.83;;
10313;SDS011;5202;49.138;10.090;2023-05-27T08:42:26;8.95;;;3.50;;
10313;SDS011;5202;49.138;10.090;2023-05-27T08:44:56;9.48;;;3.53;;
10313;SDS011;5202;49.138;10.090;2023-05-27T08:47:25;10.52;;;3.70;;
10313;SDS011;5202;49.138;10.090;2023-05-27T08:49:55;10.48;;;3.45;;
10313;SDS011;5202;49.138;10.090;2023-05-27T08:52:26;9.80;;;3.83;;
10313;SDS011;5202;49.138;10.090;2023-05-27T08:54:56;12.50;;;3.70;;
10313;SDS011;5202;49.138;10.090;2023-05-27T08:57:25;12.85;;;3.75;;
10313;SDS011;5202;49.138;10.090;2023-05-27T08:59:58;7.35;;;3.58;;
10313;SDS011;5202;49.138;10.090;2023-05-27T09:02:26;8.10;;;3.63;;
10313;SDS011;5202;49.138;10.090;2023-05-27T09:04:56;9.02;;;3.58;;
10313;SDS011;5202;49.138;10.090;2023-05-27T09:07:25;7.10;;;3.38;;
10313;SDS011;5202;49.138;10.090;2023-05-27T09:09:56;8.20;;;3.75;;
10313;SDS011;5202;49.138;10.090;2023-05-27T09:12:25;8.90;;;3.55;;
10313;SDS011;5202;49.138;10.090;2023-05-27T09:14:54;13.50;;;4.15;;
10313;SDS011;5202;49.138;10.090;2023-05-27T09:17:25;9.02;;;3.47;;
10313;SDS011;5202;49.138;10.090;2023-05-27T09:19:53;9.13;;;3.60;;
10313;SDS011;5202;49.138;10.090;2023-05-27T09:22:23;7.65;;;3.38;;
10313;SDS011;5202;49.138;10.090;2023-05-27T09:24:53;12.73;;;3.97;;
10313;SDS011;5202;49.138;10.090;2023-05-27T09:27:26;11.40;;;4.25;;
10313;SDS011;5202;49.138;10.090;2023-05-27T09:29:55;14.30;;;4.22;;
10313;SDS011;5202;49.138;10.090;2023-05-27T09:32:26;17.95;;;4.70;;
10313;SDS011;5202;49.138;10.090;2023-05-27T09:34:55;11.15;;;3.67;;
10313;SDS011;5202;49.138;10.090;2023-05-27T09:37:24;9.70;;;3.95;;
10313;SDS011;5202;49.138;10.090;2023-05-27T09:39:58;11.18;;;3.88;;
10313;SDS011;5202;49.138;10.090;2023-05-27T09:42:38;8.32;;;3.60;;
10313;SDS011;5202;49.138;10.090;2023-05-27T09:45:08;12.35;;;3.97;;
10313;SDS011;5202;49.138;10.090;2023-05-27T09:47:41;9.80;;;3.47;;
10313;SDS011;5202;49.138;10.090;2023-05-27T09:50:15;10.35;;;4.10;;
10313;SDS011;5202;49.138;10.090;2023-05-27T09:52:44;8.63;;;3.58;;
10313;SDS011;5202;49.138;10.090;2023-05-27T09:55:30;9.60;;;3.88;;
10313;SDS011;5202;49.138;10.090;2023-05-27T09:57:59;7.60;;;3.88;;
10313;SDS011;5202;49.138;10.090;2023-05-27T10:00:28;11.93;;;3.70;;
10313;SDS011;5202;49.138;10.090;2023-05-27T10:03:00;8.82;;;4.03;;
10313;SDS011;5202;49.138;10.090;2023-05-27T10:05:33;9.07;;;4.03;;
10313;SDS011;5202;49.138;10.090;2023-05-27T10:08:02;16.42;;;3.85;;
10313;SDS011;5202;49.138;10.090;2023-05-27T10:10:43;10.95;;;3.45;;
10313;SDS011;5202;49.138;10.090;2023-05-27T10:13:13;9.60;;;3.33;;
10313;SDS011;5202;49.138;10.090;2023-05-27T10:15:45;8.18;;;3.30;;
10313;SDS011;5202;49.138;10.090;2023-05-27T10:18:24;6.60;;;2.90;;
10313;SDS011;5202;49.138;10.090;2023-05-27T10:20:56;8.20;;;3.13;;
10313;SDS011;5202;49.138;10.090;2023-05-27T10:23:26;11.73;;;3.50;;
10313;SDS011;5202;49.138;10.090;2023-05-27T10:26:00;9.48;;;4.20;;
10313;SDS011;5202;49.138;10.090;2023-05-27T10:28:32;5.78;;;3.28;;
10313;SDS011;5202;49.138;10.090;2023-05-27T10:31:03;6.57;;;3.15;;
10313;SDS011;5202;49.138;10.090;2023-05-27T10:33:35;7.65;;;3.30;;
10313;SDS011;5202;49.138;10.090;2023-05-27T10:36:08;10.35;;;3.72;;
10313;SDS011;5202;49.138;10.090;2023-05-27T10:38:40;7.70;;;3.20;;
10313;SDS011;5202;49.138;10.090;2023-05-27T10:41:09;8.05;;;3.38;;
10313;SDS011;5202;49.138;10.090;2023-05-27T10:43:38;6.22;;;3.03;;
10313;SDS011;5202;49.138;10.090;2023-05-27T10:46:07;6.05;;;2.75;;
10313;SDS011;5202;49.138;10.090;2023-05-27T10:48:38;9.18;;;2.97;;
10313;SDS011;5202;49.138;10.090;2023-05-27T10:51:07;5.93;;;3.17;;
10313;SDS011;5202;49.138;10.090;2023-05-27T10:53:38;9.02;;;3.20;;
10313;SDS011;5202;49.138;10.090;2023-05-27T10:56:07;5.50;;;2.95;;
10313;SDS011;5202;49.138;10.090;2023-05-27T10:58:36;8.07;;;3.05;;
10313;SDS011;5202;49.138;10.090;2023-05-27T11:01:09;8.10;;;2.90;;
10313;SDS011;5202;49.138;10.090;2023-05-27T11:03:44;6.80;;;2.90;;
10313;SDS011;5202;49.138;10.090;2023-05-27T11:06:15;9.10;;;3.45;;
10313;SDS011;5202;49.138;10.090;2023-05-27T11:08:44;11.10;;;3.45;;
10313;SDS011;5202;49.138;10.090;2023-05-27T11:11:12;7.90;;;3.38;;
10313;SDS011;5202;49.138;10.090;2023-05-27T11:13:41;6.57;;;2.60;;
10313;SDS011;5202;49.138;10.090;2023-05-27T11:16:14;5.78;;;2.90;;
10313;SDS011;5202;49.138;10.090;2023-05-27T11:18:45;6.55;;;3.15;;
10313;SDS011;5202;49.138;10.090;2023-05-27T11:21:15;6.93;;;3.33;;
10313;SDS011;5202;49.138;10.090;2023-05-27T11:23:45;8.18;;;3.10;;
10313;SDS011;5202;49.138;10.090;2023-05-27T11:26:15;9.68;;;3.30;;
10313;SDS011;5202;49.138;10.090;2023-05-27T11:28:48;9.88;;;3.38;;
10313;SDS011;5202;49.138;10.090;2023-05-27T11:31:18;6.22;;;3.33;;
10313;SDS011;5202;49.138;10.090;2023-05-27T11:33:50;5.28;;;2.80;;
10313;SDS011;5202;49.138;10.090;2023-05-27T11:36:19;7.93;;;3.10;;
10313;SDS011;5202;49.138;10.090;2023-05-27T11:38:48;5.82;;;2.67;;
10313;SDS011;5202;49.138;10.090;2023-05-27T11:41:20;6.68;;;3.30;;
10313;SDS011;5202;49.138;10.090;2023-05-27T11:43:50;5.97;;;3.05;;
10313;SDS011;5202;49.138;10.090;2023-05-27T11:46:20;6.45;;;3.15;;
10313;SDS011;5202;49.138;10.090;2023-05-27T11:48:51;11.68;;;3.10;;
10313;SDS011;5202;49.138;10.090;2023-05-27T11:51:25;9.93;;;3.45;;
10313;SDS011;5202;49.138;10.090;2023-05-27T11:53:57;7.70;;;2.97;;
10313;SDS011;5202;49.138;10.090;2023-05-27T11:56:27;6.43;;;2.95;;
10313;SDS011;5202;49.138;10.090;2023-05-27T11:58:56;6.43;;;2.92;;
10313;SDS011;5202;49.138;10.090;2023-05-27T12:04:22;9.60;;;3.00;;
10313;SDS011;5202;49.138;10.090;2023-05-27T12:06:54;8.00;;;3.30;;
10313;SDS011;5202;49.138;10.090;2023-05-27T12:09:26;7.88;;;3.05;;
10313;SDS011;5202;49.138;10.090;2023-05-27T12:11:54;8.10;;;2.90;;
10313;SDS011;5202;49.138;10.090;2023-05-27T12:14:23;6.47;;;2.85;;
10313;SDS011;5202;49.138;10.090;2023-05-27T12:16:51;5.90;;;3.35;;
10313;SDS011;5202;49.138;10.090;2023-05-27T12:19:19;8.18;;;3.45;;
10313;SDS011;5202;49.138;10.090;2023-05-27T12:21:49;5.20;;;2.55;;
10313;SDS011;5202;49.138;10.090;2023-05-27T12:24:17;6.60;;;2.58;;
10313;SDS011;5202;49.138;10.090;2023-05-27T12:26:46;6.25;;;3.05;;
10313;SDS011;5202;49.138;10.090;2023-05-27T12:29:14;5.32;;;2.38;;
10313;SDS011;5202;49.138;10.090;2023-05-27T12:31:43;7.00;;;3.03;;
10313;SDS011;5202;49.138;10.090;2023-05-27T12:34:11;5.85;;;2.60;;
10313;SDS011;5202;49.138;10.090;2023-05-27T12:36:39;5.03;;;2.70;;
10313;SDS011;5202;49.138;10.090;2023-05-27T12:39:09;10.07;;;2.80;;
10313;SDS011;5202;49.138;10.090;2023-05-27T12:41:37;8.27;;;2.90;;
10313;SDS011;5202;49.138;10.090;2023-05-27T12:44:06;7.25;;;3.00;;
10313;SDS011;5202;49.138;10.090;2023-05-27T12:46:34;6.47;;;3.17;;
10313;SDS011;5202;49.138;10.090;2023-05-27T12:49:02;6.28;;;2.95;;
10313;SDS011;5202;49.138;10.090;2023-05-27T12:51:31;6.32;;;3.30;;
10313;SDS011;5202;49.138;10.090;2023-05-27T12:53:59;6.22;;;2.80;;
10313;SDS011;5202;49.138;10.090;2023-05-27T12:56:29;7.07;;;2.97;;
10313;SDS011;5202;49.138;10.090;2023-05-27T12:58:57;5.25;;;3.15;;
10313;SDS011;5202;49.138;10.090;2023-05-27T13:01:26;9.52;;;3.30;;
10313;SDS011;5202;49.138;10.090;2023-05-27T13:03:55;10.05;;;3.10;;
10313;SDS011;5202;49.138;10.090;2023-05-27T13:06:23;5.53;;;3.40;;
10313;SDS011;5202;49.138;10.090;2023-05-27T13:08:52;7.90;;;2.97;;
10313;SDS011;5202;49.138;10.090;2023-05-27T13:11:20;9.55;;;3.20;;
10313;SDS011;5202;49.138;10.090;2023-05-27T13:13:50;7.88;;;2.83;;
10313;SDS011;5202;49.138;10.090;2023-05-27T13:16:18;7.97;;;3.28;;
10313;SDS011;5202;49.138;10.090;2023-05-27T13:18:47;6.72;;;3.08;;
10313;SDS011;5202;49.138;10.090;2023-05-27T13:21:16;6.75;;;2.60;;
10313;SDS011;5202;49.138;10.090;2023-05-27T13:23:44;8.10;;;2.83;;
10313;SDS011;5202;49.138;10.090;2023-05-27T13:26:12;7.03;;;2.80;;
10313;SDS011;5202;49.138;10.090;2023-05-27T13:28:41;6.93;;;3.10;;
10313;SDS011;5202;49.138;10.090;2023-05-27T13:31:11;6.93;;;3.28;;
10313;SDS011;5202;49.138;10.090;2023-05-27T13:33:39;7.20;;;3.10;;
10313;SDS011;5202;49.138;10.090;2023-05-27T13:36:08;9.25;;;2.90;;
10313;SDS011;5202;49.138;10.090;2023-05-27T13:38:36;4.65;;;2.85;;
10313;SDS011;5202;49.138;10.090;2023-05-27T13:41:05;9.05;;;2.75;;
10313;SDS011;5202;49.138;10.090;2023-05-27T13:43:33;6.45;;;3.10;;
10313;SDS011;5202;49.138;10.090;2023-05-27T13:46:01;9.45;;;3.53;;
10313;SDS011;5202;49.138;10.090;2023-05-27T13:48:31;10.98;;;3.53;;
10313;SDS011;5202;49.138;10.090;2023-05-27T13:50:59;4.68;;;2.70;;
10313;SDS011;5202;49.138;10.090;2023-05-27T13:53:28;5.80;;;2.90;;
10313;SDS011;5202;49.138;10.090;2023-05-27T13:55:57;8.18;;;3.33;;
10313;SDS011;5202;49.138;10.090;2023-05-27T13:58:25;8.35;;;3.45;;
10313;SDS011;5202;49.138;10.090;2023-05-27T14:00:55;7.18;;;2.78;;
10313;SDS011;5202;49.138;10.090;2023-05-27T14:03:23;7.05;;;3.13;;
10313;SDS011;5202;49.138;10.090;2023-05-27T14:05:52;6.47;;;3.00;;
10313;SDS011;5202;49.138;10.090;2023-05-27T14:08:21;5.95;;;2.75;;
10313;SDS011;5202;49.138;10.090;2023-05-27T14:10:49;5.40;;;2.53;;
10313;SDS011;5202;49.138;10.090;2023-05-27T14:13:18;6.82;;;3.03;;
10313;SDS011;5202;49.138;10.090;2023-05-27T14:15:46;5.10;;;2.83;;
10313;SDS011;5202;49.138;10.090;2023-05-27T14:18:15;4.95;;;2.72;;
10313;SDS011;5202;49.138;10.090;2023-05-27T14:20:43;5.72;;;3.17;;
10313;SDS011;5202;49.138;10.090;2023-05-27T14:23:13;6.45;;;2.97;;
10313;SDS011;5202;49.138;10.090;2023-05-27T14:25:42;5.78;;;2.40;;
10313;SDS011;5202;49.138;10.090;2023-05-27T14:28:11;4.85;;;2.50;;
10313;SDS011;5202;49.138;10.090;2023-05-27T14:30:39;7.38;;;2.63;;
10313;SDS011;5202;49.138;10.090;2023-05-27T14:33:08;5.40;;;2.58;;
10313;SDS011;5202;49.138;10.090;2023-05-27T14:35:37;5.90;;;3.17;;
10313;SDS011;5202;49.138;10.090;2023-05-27T14:38:06;6.35;;;3.35;;
10313;SDS011;5202;49.138;10.090;2023-05-27T14:40:36;4.38;;;2.60;;
10313;SDS011;5202;49.138;10.090;2023-05-27T14:43:04;7.55;;;3.20;;
10313;SDS011;5202;49.138;10.090;2023-05-27T14:45:33;6.78;;;2.72;;
10313;SDS011;5202;49.138;10.090;2023-05-27T14:48:01;6.68;;;3.05;;
10313;SDS011;5202;49.138;10.090;2023-05-27T14:50:29;7.63;;;2.80;;
10313;SDS011;5202;49.138;10.090;2023-05-27T14:52:58;6.43;;;2.88;;
10313;SDS011;5202;49.138;10.090;2023-05-27T14:55:26;13.57;;;2.83;;
10313;SDS011;5202;49.138;10.090;2023-05-27T14:57:56;5.22;;;2.58;;
10313;SDS011;5202;49.138;10.090;2023-05-27T15:00:24;8.85;;;2.97;;
10313;SDS011;5202;49.138;10.090;2023-05-27T15:02:53;8.00;;;2.92;;
10313;SDS011;5202;49.138;10.090;2023-05-27T15:05:21;5.78;;;2.42;;
10313;SDS011;5202;49.138;10.090;2023-05-27T15:07:50;5.30;;;2.80;;
10313;SDS011;5202;49.138;10.090;2023-05-27T15:10:18;6.88;;;2.92;;